Saint George's, Canada
Current Conditions -  °F | °C
As of 5:00 PM on Friday 24 Oct 2014 (Local Time) from CYJT Reporting Station
Overcast Overcast  
Wind Chill: 54°   Ceiling: 2200
Heat Index: 54°   Visibility: 10mi
Dew Point: 48°   Wind: 22mph
Humidity: 82%   Direction: 70°ENE
Pressure: 29.66"   Gusts: 30mph
Location:  48.43°N, 58.5°W
Report Text: CYJT 241900Z 07019G26KT 10SM OVC022 12/09 A2966 RMK SC8 SLP044
Loading
Personal Weather Stations






























Interactive Weather Map
Tropical Storm Tracking
New forecast layout! Learn more

10-Day Weather Forecast

Advertisements
Track Severe Weather on mobile